sensor_id;sensor_type;location;lat;lon;timestamp;P1;durP1;ratioP1;P2;durP2;ratioP2
15643;SDS011;7921;43.586;1.408;2023-11-19T00:01:51;18.57;;;15.97;;
15643;SDS011;7921;43.586;1.408;2023-11-19T00:04:16;18.03;;;16.07;;
15643;SDS011;7921;43.586;1.408;2023-11-19T00:06:42;17.70;;;15.03;;
15643;SDS011;7921;43.586;1.408;2023-11-19T00:09:07;17.60;;;14.67;;
15643;SDS011;7921;43.586;1.408;2023-11-19T00:11:33;17.97;;;16.07;;
15643;SDS011;7921;43.586;1.408;2023-11-19T00:13:58;15.80;;;14.20;;
15643;SDS011;7921;43.586;1.408;2023-11-19T00:16:23;17.43;;;15.23;;
15643;SDS011;7921;43.586;1.408;2023-11-19T00:18:49;16.10;;;14.50;;
15643;SDS011;7921;43.586;1.408;2023-11-19T00:21:15;17.83;;;15.27;;
15643;SDS011;7921;43.586;1.408;2023-11-19T00:23:40;16.93;;;14.30;;
15643;SDS011;7921;43.586;1.408;2023-11-19T00:26:05;16.17;;;13.80;;
15643;SDS011;7921;43.586;1.408;2023-11-19T00:28:31;15.27;;;12.83;;
15643;SDS011;7921;43.586;1.408;2023-11-19T00:30:58;14.03;;;12.10;;
15643;SDS011;7921;43.586;1.408;2023-11-19T00:33:23;13.63;;;12.10;;
15643;SDS011;7921;43.586;1.408;2023-11-19T00:35:49;12.33;;;11.10;;
15643;SDS011;7921;43.586;1.408;2023-11-19T00:38:15;12.23;;;10.00;;
15643;SDS011;7921;43.586;1.408;2023-11-19T00:40:40;12.47;;;11.17;;
15643;SDS011;7921;43.586;1.408;2023-11-19T00:43:06;10.63;;;9.53;;
15643;SDS011;7921;43.586;1.408;2023-11-19T00:45:32;11.10;;;9.83;;
15643;SDS011;7921;43.586;1.408;2023-11-19T00:47:57;11.13;;;9.97;;
15643;SDS011;7921;43.586;1.408;2023-11-19T00:50:24;11.20;;;10.20;;
15643;SDS011;7921;43.586;1.408;2023-11-19T00:52:50;12.10;;;9.70;;
15643;SDS011;7921;43.586;1.408;2023-11-19T00:55:16;11.23;;;10.10;;
15643;SDS011;7921;43.586;1.408;2023-11-19T00:57:42;13.57;;;11.77;;
15643;SDS011;7921;43.586;1.408;2023-11-19T01:00:07;12.60;;;10.67;;
15643;SDS011;7921;43.586;1.408;2023-11-19T01:02:42;13.93;;;11.07;;
15643;SDS011;7921;43.586;1.408;2023-11-19T01:05:08;11.60;;;10.40;;
15643;SDS011;7921;43.586;1.408;2023-11-19T01:07:34;10.90;;;9.37;;
15643;SDS011;7921;43.586;1.408;2023-11-19T01:09:59;10.30;;;9.30;;
15643;SDS011;7921;43.586;1.408;2023-11-19T01:12:24;9.43;;;8.47;;
15643;SDS011;7921;43.586;1.408;2023-11-19T01:14:50;10.27;;;8.70;;
15643;SDS011;7921;43.586;1.408;2023-11-19T01:17:15;10.57;;;8.50;;
15643;SDS011;7921;43.586;1.408;2023-11-19T01:19:41;9.53;;;8.57;;
15643;SDS011;7921;43.586;1.408;2023-11-19T01:22:06;9.43;;;8.47;;
15643;SDS011;7921;43.586;1.408;2023-11-19T01:24:32;9.17;;;8.20;;
15643;SDS011;7921;43.586;1.408;2023-11-19T01:26:57;8.37;;;7.57;;
15643;SDS011;7921;43.586;1.408;2023-11-19T01:29:24;7.97;;;7.17;;
15643;SDS011;7921;43.586;1.408;2023-11-19T01:31:50;8.57;;;7.67;;
15643;SDS011;7921;43.586;1.408;2023-11-19T01:34:18;8.27;;;7.40;;
15643;SDS011;7921;43.586;1.408;2023-11-19T01:36:43;11.83;;;7.20;;
15643;SDS011;7921;43.586;1.408;2023-11-19T01:39:11;8.83;;;7.57;;
15643;SDS011;7921;43.586;1.408;2023-11-19T01:41:36;8.50;;;7.27;;
15643;SDS011;7921;43.586;1.408;2023-11-19T01:44:04;8.20;;;7.40;;
15643;SDS011;7921;43.586;1.408;2023-11-19T01:46:31;8.83;;;7.67;;
15643;SDS011;7921;43.586;1.408;2023-11-19T01:48:59;7.90;;;7.10;;
15643;SDS011;7921;43.586;1.408;2023-11-19T01:51:25;7.47;;;6.77;;
15643;SDS011;7921;43.586;1.408;2023-11-19T01:53:50;7.63;;;6.93;;
15643;SDS011;7921;43.586;1.408;2023-11-19T01:56:16;9.17;;;6.77;;
15643;SDS011;7921;43.586;1.408;2023-11-19T01:58:42;8.10;;;5.87;;
15643;SDS011;7921;43.586;1.408;2023-11-19T02:01:09;7.17;;;6.37;;
15643;SDS011;7921;43.586;1.408;2023-11-19T02:03:36;6.73;;;6.13;;
15643;SDS011;7921;43.586;1.408;2023-11-19T02:06:01;6.83;;;6.00;;
15643;SDS011;7921;43.586;1.408;2023-11-19T02:08:27;6.70;;;6.10;;
15643;SDS011;7921;43.586;1.408;2023-11-19T02:10:54;8.90;;;6.30;;
15643;SDS011;7921;43.586;1.408;2023-11-19T02:13:22;6.77;;;6.13;;
15643;SDS011;7921;43.586;1.408;2023-11-19T02:15:49;6.83;;;6.17;;
15643;SDS011;7921;43.586;1.408;2023-11-19T02:20:47;6.70;;;6.10;;
15643;SDS011;7921;43.586;1.408;2023-11-19T02:23:14;6.50;;;5.90;;
15643;SDS011;7921;43.586;1.408;2023-11-19T02:25:40;6.83;;;6.13;;
15643;SDS011;7921;43.586;1.408;2023-11-19T02:28:05;7.17;;;6.17;;
15643;SDS011;7921;43.586;1.408;2023-11-19T02:30:31;6.57;;;5.97;;
15643;SDS011;7921;43.586;1.408;2023-11-19T02:32:57;7.33;;;6.37;;
15643;SDS011;7921;43.586;1.408;2023-11-19T02:35:30;6.63;;;5.70;;
15643;SDS011;7921;43.586;1.408;2023-11-19T02:37:56;7.00;;;5.60;;
15643;SDS011;7921;43.586;1.408;2023-11-19T02:40:22;7.23;;;6.17;;
15643;SDS011;7921;43.586;1.408;2023-11-19T02:42:49;8.43;;;5.93;;
15643;SDS011;7921;43.586;1.408;2023-11-19T02:45:15;7.13;;;5.93;;
15643;SDS011;7921;43.586;1.408;2023-11-19T02:47:41;7.30;;;6.13;;
15643;SDS011;7921;43.586;1.408;2023-11-19T02:50:10;7.00;;;5.77;;
15643;SDS011;7921;43.586;1.408;2023-11-19T02:52:42;6.97;;;6.27;;
15643;SDS011;7921;43.586;1.408;2023-11-19T02:55:08;6.50;;;5.80;;
15643;SDS011;7921;43.586;1.408;2023-11-19T02:57:40;6.57;;;5.67;;
15643;SDS011;7921;43.586;1.408;2023-11-19T03:00:15;6.33;;;5.57;;
15643;SDS011;7921;43.586;1.408;2023-11-19T03:02:42;6.77;;;6.17;;
15643;SDS011;7921;43.586;1.408;2023-11-19T03:05:11;6.87;;;5.90;;
15643;SDS011;7921;43.586;1.408;2023-11-19T03:07:39;9.23;;;6.07;;
15643;SDS011;7921;43.586;1.408;2023-11-19T03:10:08;6.40;;;5.80;;
15643;SDS011;7921;43.586;1.408;2023-11-19T03:12:40;6.97;;;6.03;;
15643;SDS011;7921;43.586;1.408;2023-11-19T03:15:06;8.23;;;6.17;;
15643;SDS011;7921;43.586;1.408;2023-11-19T03:17:32;5.77;;;5.17;;
15643;SDS011;7921;43.586;1.408;2023-11-19T03:19:58;8.33;;;5.53;;
15643;SDS011;7921;43.586;1.408;2023-11-19T03:22:24;6.03;;;5.43;;
15643;SDS011;7921;43.586;1.408;2023-11-19T03:24:52;6.33;;;5.40;;
15643;SDS011;7921;43.586;1.408;2023-11-19T03:27:18;7.13;;;5.70;;
15643;SDS011;7921;43.586;1.408;2023-11-19T03:29:43;7.07;;;5.50;;
15643;SDS011;7921;43.586;1.408;2023-11-19T03:32:08;6.17;;;5.57;;
15643;SDS011;7921;43.586;1.408;2023-11-19T03:34:34;5.37;;;4.87;;
15643;SDS011;7921;43.586;1.408;2023-11-19T03:36:59;5.90;;;5.40;;
15643;SDS011;7921;43.586;1.408;2023-11-19T03:39:24;6.40;;;5.80;;
15643;SDS011;7921;43.586;1.408;2023-11-19T03:41:50;6.50;;;5.80;;
15643;SDS011;7921;43.586;1.408;2023-11-19T03:44:15;6.70;;;6.00;;
15643;SDS011;7921;43.586;1.408;2023-11-19T03:46:41;6.27;;;5.67;;
15643;SDS011;7921;43.586;1.408;2023-11-19T03:49:07;6.53;;;5.23;;
15643;SDS011;7921;43.586;1.408;2023-11-19T03:51:32;5.67;;;5.17;;
15643;SDS011;7921;43.586;1.408;2023-11-19T03:53:57;6.00;;;4.87;;
15643;SDS011;7921;43.586;1.408;2023-11-19T03:56:24;7.73;;;5.00;;
15643;SDS011;7921;43.586;1.408;2023-11-19T03:58:49;5.40;;;4.87;;
15643;SDS011;7921;43.586;1.408;2023-11-19T04:01:14;5.20;;;4.63;;
15643;SDS011;7921;43.586;1.408;2023-11-19T04:03:40;7.30;;;5.30;;
15643;SDS011;7921;43.586;1.408;2023-11-19T04:06:05;5.80;;;5.20;;
15643;SDS011;7921;43.586;1.408;2023-11-19T04:08:31;6.27;;;5.20;;
15643;SDS011;7921;43.586;1.408;2023-11-19T04:10:56;5.50;;;5.00;;
15643;SDS011;7921;43.586;1.408;2023-11-19T04:13:22;6.20;;;5.00;;
15643;SDS011;7921;43.586;1.408;2023-11-19T04:15:49;5.40;;;4.90;;
15643;SDS011;7921;43.586;1.408;2023-11-19T04:18:15;5.50;;;5.00;;
15643;SDS011;7921;43.586;1.408;2023-11-19T04:20:41;5.50;;;5.00;;
15643;SDS011;7921;43.586;1.408;2023-11-19T04:23:07;5.33;;;4.83;;
15643;SDS011;7921;43.586;1.408;2023-11-19T04:25:33;5.37;;;4.87;;
15643;SDS011;7921;43.586;1.408;2023-11-19T04:28:00;5.40;;;4.90;;
15643;SDS011;7921;43.586;1.408;2023-11-19T04:30:25;5.93;;;4.73;;
15643;SDS011;7921;43.586;1.408;2023-11-19T04:32:51;6.50;;;4.63;;
15643;SDS011;7921;43.586;1.408;2023-11-19T04:35:16;6.10;;;4.93;;
15643;SDS011;7921;43.586;1.408;2023-11-19T04:37:42;5.10;;;4.60;;
15643;SDS011;7921;43.586;1.408;2023-11-19T04:40:07;6.40;;;4.97;;
15643;SDS011;7921;43.586;1.408;2023-11-19T04:42:33;7.70;;;5.33;;
15643;SDS011;7921;43.586;1.408;2023-11-19T04:44:59;5.73;;;5.10;;
15643;SDS011;7921;43.586;1.408;2023-11-19T04:47:24;6.00;;;4.93;;
15643;SDS011;7921;43.586;1.408;2023-11-19T04:49:49;6.13;;;4.67;;
15643;SDS011;7921;43.586;1.408;2023-11-19T04:52:15;4.87;;;4.37;;
15643;SDS011;7921;43.586;1.408;2023-11-19T04:54:44;5.57;;;4.87;;
15643;SDS011;7921;43.586;1.408;2023-11-19T04:57:09;7.43;;;4.67;;
15643;SDS011;7921;43.586;1.408;2023-11-19T04:59:38;4.87;;;4.40;;
15643;SDS011;7921;43.586;1.408;2023-11-19T05:02:03;5.20;;;4.37;;
15643;SDS011;7921;43.586;1.408;2023-11-19T05:04:29;5.13;;;4.63;;
15643;SDS011;7921;43.586;1.408;2023-11-19T05:06:55;5.23;;;4.30;;
15643;SDS011;7921;43.586;1.408;2023-11-19T05:09:20;5.27;;;4.40;;
15643;SDS011;7921;43.586;1.408;2023-11-19T05:11:45;4.87;;;4.10;;
15643;SDS011;7921;43.586;1.408;2023-11-19T05:14:11;4.63;;;4.20;;
15643;SDS011;7921;43.586;1.408;2023-11-19T05:16:39;4.93;;;4.07;;
15643;SDS011;7921;43.586;1.408;2023-11-19T05:19:05;5.37;;;4.07;;
15643;SDS011;7921;43.586;1.408;2023-11-19T05:21:30;5.23;;;4.50;;
15643;SDS011;7921;43.586;1.408;2023-11-19T05:23:55;5.13;;;4.40;;
15643;SDS011;7921;43.586;1.408;2023-11-19T05:26:22;4.30;;;3.90;;
15643;SDS011;7921;43.586;1.408;2023-11-19T05:28:48;5.47;;;4.20;;
15643;SDS011;7921;43.586;1.408;2023-11-19T05:31:14;4.07;;;3.77;;
15643;SDS011;7921;43.586;1.408;2023-11-19T05:33:40;4.60;;;3.70;;
15643;SDS011;7921;43.586;1.408;2023-11-19T05:36:06;5.77;;;4.63;;
15643;SDS011;7921;43.586;1.408;2023-11-19T05:38:33;4.63;;;4.00;;
15643;SDS011;7921;43.586;1.408;2023-11-19T05:40:58;4.50;;;4.10;;
15643;SDS011;7921;43.586;1.408;2023-11-19T05:43:24;4.20;;;3.80;;
15643;SDS011;7921;43.586;1.408;2023-11-19T05:45:49;8.43;;;5.20;;
15643;SDS011;7921;43.586;1.408;2023-11-19T05:48:14;7.20;;;6.23;;
15643;SDS011;7921;43.586;1.408;2023-11-19T05:50:40;7.97;;;7.17;;
15643;SDS011;7921;43.586;1.408;2023-11-19T05:53:05;8.57;;;7.47;;
15643;SDS011;7921;43.586;1.408;2023-11-19T05:55:34;8.07;;;5.53;;
15643;SDS011;7921;43.586;1.408;2023-11-19T05:58:00;6.10;;;5.53;;
15643;SDS011;7921;43.586;1.408;2023-11-19T06:00:26;4.93;;;4.33;;
15643;SDS011;7921;43.586;1.408;2023-11-19T06:02:51;4.90;;;4.43;;
15643;SDS011;7921;43.586;1.408;2023-11-19T06:05:17;4.50;;;4.10;;
15643;SDS011;7921;43.586;1.408;2023-11-19T06:07:43;4.60;;;4.20;;
15643;SDS011;7921;43.586;1.408;2023-11-19T06:10:08;4.63;;;4.23;;
15643;SDS011;7921;43.586;1.408;2023-11-19T06:12:35;5.73;;;4.97;;
15643;SDS011;7921;43.586;1.408;2023-11-19T06:15:03;5.10;;;4.60;;
15643;SDS011;7921;43.586;1.408;2023-11-19T06:17:30;4.20;;;3.80;;
15643;SDS011;7921;43.586;1.408;2023-11-19T06:19:55;4.17;;;3.77;;
15643;SDS011;7921;43.586;1.408;2023-11-19T06:22:20;4.47;;;4.07;;
15643;SDS011;7921;43.586;1.408;2023-11-19T06:24:46;5.27;;;4.23;;
15643;SDS011;7921;43.586;1.408;2023-11-19T06:27:11;5.77;;;4.53;;
15643;SDS011;7921;43.586;1.408;2023-11-19T06:29:38;4.37;;;3.97;;
15643;SDS011;7921;43.586;1.408;2023-11-19T06:32:05;4.87;;;4.37;;
15643;SDS011;7921;43.586;1.408;2023-11-19T06:34:31;5.43;;;4.80;;
15643;SDS011;7921;43.586;1.408;2023-11-19T06:36:58;4.53;;;4.13;;
15643;SDS011;7921;43.586;1.408;2023-11-19T06:39:23;4.83;;;4.33;;
15643;SDS011;7921;43.586;1.408;2023-11-19T06:41:48;4.30;;;3.90;;
15643;SDS011;7921;43.586;1.408;2023-11-19T06:44:14;5.17;;;4.77;;
15643;SDS011;7921;43.586;1.408;2023-11-19T06:46:39;4.47;;;4.07;;
15643;SDS011;7921;43.586;1.408;2023-11-19T06:49:05;5.03;;;4.37;;
15643;SDS011;7921;43.586;1.408;2023-11-19T06:51:32;4.33;;;3.93;;
15643;SDS011;7921;43.586;1.408;2023-11-19T06:53:58;4.43;;;3.97;;
15643;SDS011;7921;43.586;1.408;2023-11-19T06:56:24;4.77;;;4.23;;
15643;SDS011;7921;43.586;1.408;2023-11-19T06:58:50;4.10;;;3.70;;
15643;SDS011;7921;43.586;1.408;2023-11-19T07:01:16;4.50;;;4.10;;
15643;SDS011;7921;43.586;1.408;2023-11-19T07:03:43;5.00;;;3.73;;
15643;SDS011;7921;43.586;1.408;2023-11-19T07:06:09;4.47;;;4.07;;
15643;SDS011;7921;43.586;1.408;2023-11-19T07:08:35;4.47;;;3.97;;
15643;SDS011;7921;43.586;1.408;2023-11-19T07:11:01;4.47;;;4.07;;
15643;SDS011;7921;43.586;1.408;2023-11-19T07:13:27;4.30;;;3.90;;
15643;SDS011;7921;43.586;1.408;2023-11-19T07:15:53;5.87;;;4.23;;
15643;SDS011;7921;43.586;1.408;2023-11-19T07:18:20;4.33;;;3.93;;
15643;SDS011;7921;43.586;1.408;2023-11-19T07:20:47;4.53;;;4.13;;
15643;SDS011;7921;43.586;1.408;2023-11-19T07:23:13;5.27;;;4.37;;
15643;SDS011;7921;43.586;1.408;2023-11-19T07:25:41;5.07;;;4.43;;
15643;SDS011;7921;43.586;1.408;2023-11-19T07:28:08;5.20;;;4.00;;
15643;SDS011;7921;43.586;1.408;2023-11-19T07:30:35;4.50;;;4.10;;
15643;SDS011;7921;43.586;1.408;2023-11-19T07:33:00;4.23;;;3.83;;
15643;SDS011;7921;43.586;1.408;2023-11-19T07:35:26;4.30;;;3.90;;
15643;SDS011;7921;43.586;1.408;2023-11-19T07:37:51;4.20;;;3.80;;
15643;SDS011;7921;43.586;1.408;2023-11-19T07:40:16;4.50;;;4.10;;
15643;SDS011;7921;43.586;1.408;2023-11-19T07:42:42;4.53;;;4.13;;
15643;SDS011;7921;43.586;1.408;2023-11-19T07:45:07;4.60;;;4.17;;
15643;SDS011;7921;43.586;1.408;2023-11-19T07:47:33;4.97;;;3.73;;
15643;SDS011;7921;43.586;1.408;2023-11-19T07:49:59;5.30;;;4.80;;
15643;SDS011;7921;43.586;1.408;2023-11-19T07:52:24;5.07;;;4.60;;
15643;SDS011;7921;43.586;1.408;2023-11-19T07:54:50;5.73;;;4.80;;
15643;SDS011;7921;43.586;1.408;2023-11-19T07:57:15;4.70;;;4.20;;
15643;SDS011;7921;43.586;1.408;2023-11-19T07:59:40;4.87;;;4.37;;
15643;SDS011;7921;43.586;1.408;2023-11-19T08:02:06;5.83;;;4.50;;
15643;SDS011;7921;43.586;1.408;2023-11-19T08:04:31;4.37;;;3.97;;
15643;SDS011;7921;43.586;1.408;2023-11-19T08:06:57;4.47;;;4.07;;
15643;SDS011;7921;43.586;1.408;2023-11-19T08:09:22;5.33;;;4.70;;
15643;SDS011;7921;43.586;1.408;2023-11-19T08:11:48;5.27;;;4.77;;
15643;SDS011;7921;43.586;1.408;2023-11-19T08:14:13;5.27;;;4.77;;
15643;SDS011;7921;43.586;1.408;2023-11-19T08:16:41;4.70;;;4.20;;
15643;SDS011;7921;43.586;1.408;2023-11-19T08:19:07;4.63;;;4.20;;
15643;SDS011;7921;43.586;1.408;2023-11-19T08:21:33;5.27;;;4.77;;
15643;SDS011;7921;43.586;1.408;2023-11-19T08:23:58;4.60;;;4.20;;
15643;SDS011;7921;43.586;1.408;2023-11-19T08:26:24;5.47;;;4.73;;
15643;SDS011;7921;43.586;1.408;2023-11-19T08:28:49;5.27;;;4.23;;
15643;SDS011;7921;43.586;1.408;2023-11-19T08:31:17;5.93;;;4.80;;
15643;SDS011;7921;43.586;1.408;2023-11-19T08:33:42;4.90;;;4.40;;
15643;SDS011;7921;43.586;1.408;2023-11-19T08:36:07;5.27;;;4.53;;
15643;SDS011;7921;43.586;1.408;2023-11-19T08:38:33;5.10;;;4.60;;
15643;SDS011;7921;43.586;1.408;2023-11-19T08:40:58;4.70;;;4.30;;
15643;SDS011;7921;43.586;1.408;2023-11-19T08:43:27;5.97;;;4.70;;
15643;SDS011;7921;43.586;1.408;2023-11-19T08:45:52;5.43;;;4.93;;
15643;SDS011;7921;43.586;1.408;2023-11-19T08:48:18;6.23;;;4.47;;
15643;SDS011;7921;43.586;1.408;2023-11-19T08:50:43;5.23;;;4.73;;
15643;SDS011;7921;43.586;1.408;2023-11-19T08:53:09;5.13;;;4.50;;
15643;SDS011;7921;43.586;1.408;2023-11-19T08:55:34;5.80;;;5.20;;
15643;SDS011;7921;43.586;1.408;2023-11-19T08:58:00;5.13;;;4.63;;
15643;SDS011;7921;43.586;1.408;2023-11-19T09:00:26;5.43;;;4.63;;
15643;SDS011;7921;43.586;1.408;2023-11-19T09:02:51;4.53;;;4.13;;
15643;SDS011;7921;43.586;1.408;2023-11-19T09:05:16;5.60;;;5.00;;
15643;SDS011;7921;43.586;1.408;2023-11-19T09:07:42;5.23;;;4.73;;
15643;SDS011;7921;43.586;1.408;2023-11-19T09:10:07;5.57;;;4.73;;
15643;SDS011;7921;43.586;1.408;2023-11-19T09:12:33;5.80;;;4.50;;
15643;SDS011;7921;43.586;1.408;2023-11-19T09:14:59;5.13;;;4.50;;
15643;SDS011;7921;43.586;1.408;2023-11-19T09:17:24;4.57;;;4.17;;
15643;SDS011;7921;43.586;1.408;2023-11-19T09:19:50;4.60;;;4.20;;
15643;SDS011;7921;43.586;1.408;2023-11-19T09:22:15;4.90;;;4.43;;
15643;SDS011;7921;43.586;1.408;2023-11-19T09:24:41;6.80;;;4.20;;
15643;SDS011;7921;43.586;1.408;2023-11-19T09:27:09;4.57;;;4.17;;
15643;SDS011;7921;43.586;1.408;2023-11-19T09:29:34;4.47;;;4.10;;
15643;SDS011;7921;43.586;1.408;2023-11-19T09:31:59;5.10;;;4.60;;
15643;SDS011;7921;43.586;1.408;2023-11-19T09:34:25;5.33;;;4.63;;
15643;SDS011;7921;43.586;1.408;2023-11-19T09:36:50;4.47;;;4.07;;
15643;SDS011;7921;43.586;1.408;2023-11-19T09:39:16;5.07;;;4.23;;
15643;SDS011;7921;43.586;1.408;2023-11-19T09:41:43;5.20;;;4.70;;
15643;SDS011;7921;43.586;1.408;2023-11-19T09:44:10;5.43;;;4.43;;
15643;SDS011;7921;43.586;1.408;2023-11-19T09:46:36;5.03;;;4.53;;
15643;SDS011;7921;43.586;1.408;2023-11-19T09:49:03;5.70;;;4.57;;
15643;SDS011;7921;43.586;1.408;2023-11-19T09:51:29;4.17;;;3.80;;
15643;SDS011;7921;43.586;1.408;2023-11-19T09:53:55;4.30;;;3.90;;
15643;SDS011;7921;43.586;1.408;2023-11-19T09:56:20;4.57;;;4.17;;
15643;SDS011;7921;43.586;1.408;2023-11-19T09:58:46;4.67;;;4.20;;
15643;SDS011;7921;43.586;1.408;2023-11-19T10:01:11;5.03;;;4.63;;
15643;SDS011;7921;43.586;1.408;2023-11-19T10:03:37;5.67;;;4.50;;
15643;SDS011;7921;43.586;1.408;2023-11-19T10:06:06;5.27;;;4.37;;
15643;SDS011;7921;43.586;1.408;2023-11-19T10:08:32;4.27;;;3.90;;
15643;SDS011;7921;43.586;1.408;2023-11-19T10:10:57;5.37;;;4.40;;
15643;SDS011;7921;43.586;1.408;2023-11-19T10:13:30;5.63;;;4.30;;
15643;SDS011;7921;43.586;1.408;2023-11-19T10:15:56;4.37;;;3.97;;
15643;SDS011;7921;43.586;1.408;2023-11-19T10:18:27;4.53;;;4.07;;
15643;SDS011;7921;43.586;1.408;2023-11-19T10:20:53;5.07;;;4.57;;
15643;SDS011;7921;43.586;1.408;2023-11-19T10:23:19;4.47;;;3.97;;
15643;SDS011;7921;43.586;1.408;2023-11-19T10:25:45;4.03;;;3.63;;
15643;SDS011;7921;43.586;1.408;2023-11-19T10:28:10;5.73;;;4.00;;
15643;SDS011;7921;43.586;1.408;2023-11-19T10:30:36;5.53;;;4.17;;
15643;SDS011;7921;43.586;1.408;2023-11-19T10:33:05;4.43;;;4.03;;
15643;SDS011;7921;43.586;1.408;2023-11-19T10:35:32;4.57;;;4.17;;
15643;SDS011;7921;43.586;1.408;2023-11-19T10:37:59;4.77;;;4.10;;
15643;SDS011;7921;43.586;1.408;2023-11-19T10:40:37;4.67;;;4.27;;
15643;SDS011;7921;43.586;1.408;2023-11-19T10:43:03;4.87;;;4.33;;
15643;SDS011;7921;43.586;1.408;2023-11-19T10:45:28;5.07;;;4.37;;
15643;SDS011;7921;43.586;1.408;2023-11-19T10:47:54;4.93;;;4.50;;
15643;SDS011;7921;43.586;1.408;2023-11-19T10:50:20;5.03;;;4.53;;
15643;SDS011;7921;43.586;1.408;2023-11-19T10:52:46;4.93;;;4.43;;
15643;SDS011;7921;43.586;1.408;2023-11-19T10:55:13;4.57;;;4.17;;
15643;SDS011;7921;43.586;1.408;2023-11-19T10:57:40;4.67;;;4.17;;
15643;SDS011;7921;43.586;1.408;2023-11-19T11:00:09;5.33;;;4.47;;
15643;SDS011;7921;43.586;1.408;2023-11-19T11:02:38;5.00;;;4.40;;
15643;SDS011;7921;43.586;1.408;2023-11-19T11:05:06;5.20;;;4.27;;
15643;SDS011;7921;43.586;1.408;2023-11-19T11:07:33;5.20;;;3.60;;
15643;SDS011;7921;43.586;1.408;2023-11-19T11:09:59;4.70;;;3.87;;
15643;SDS011;7921;43.586;1.408;2023-11-19T11:12:26;5.60;;;3.67;;
15643;SDS011;7921;43.586;1.408;2023-11-19T11:14:51;5.13;;;3.53;;
15643;SDS011;7921;43.586;1.408;2023-11-19T11:17:18;4.10;;;3.70;;
15643;SDS011;7921;43.586;1.408;2023-11-19T11:19:44;4.60;;;4.07;;
15643;SDS011;7921;43.586;1.408;2023-11-19T11:22:10;3.97;;;3.57;;
15643;SDS011;7921;43.586;1.408;2023-11-19T11:27:30;4.20;;;3.80;;
15643;SDS011;7921;43.586;1.408;2023-11-19T11:37:37;4.87;;;3.77;;
15643;SDS011;7921;43.586;1.408;2023-11-19T11:40:08;4.23;;;3.63;;
15643;SDS011;7921;43.586;1.408;2023-11-19T11:42:40;3.73;;;3.43;;
15643;SDS011;7921;43.586;1.408;2023-11-19T11:45:07;3.27;;;2.97;;
15643;SDS011;7921;43.586;1.408;2023-11-19T11:50:09;3.37;;;2.83;;
15643;SDS011;7921;43.586;1.408;2023-11-19T11:55:25;4.90;;;3.50;;
15643;SDS011;7921;43.586;1.408;2023-11-19T11:58:03;3.93;;;3.53;;
15643;SDS011;7921;43.586;1.408;2023-11-19T12:02:56;4.70;;;4.10;;
15643;SDS011;7921;43.586;1.408;2023-11-19T12:05:24;3.80;;;2.87;;
15643;SDS011;7921;43.586;1.408;2023-11-19T12:07:55;3.33;;;2.97;;
15643;SDS011;7921;43.586;1.408;2023-11-19T12:10:23;3.37;;;2.43;;
15643;SDS011;7921;43.586;1.408;2023-11-19T12:12:49;3.57;;;2.57;;
15643;SDS011;7921;43.586;1.408;2023-11-19T12:15:18;5.80;;;3.20;;
15643;SDS011;7921;43.586;1.408;2023-11-19T12:17:48;3.40;;;2.40;;
15643;SDS011;7921;43.586;1.408;2023-11-19T12:20:15;2.60;;;2.30;;
15643;SDS011;7921;43.586;1.408;2023-11-19T12:22:41;3.67;;;3.00;;
15643;SDS011;7921;43.586;1.408;2023-11-19T12:25:08;3.17;;;2.87;;
15643;SDS011;7921;43.586;1.408;2023-11-19T12:27:44;4.10;;;3.30;;
15643;SDS011;7921;43.586;1.408;2023-11-19T12:30:11;2.57;;;2.37;;
15643;SDS011;7921;43.586;1.408;2023-11-19T12:32:40;3.10;;;2.77;;
15643;SDS011;7921;43.586;1.408;2023-11-19T12:35:07;4.17;;;2.90;;
15643;SDS011;7921;43.586;1.408;2023-11-19T12:37:41;4.93;;;2.53;;
15643;SDS011;7921;43.586;1.408;2023-11-19T12:40:14;2.53;;;2.23;;
15643;SDS011;7921;43.586;1.408;2023-11-19T12:42:44;3.00;;;2.70;;
15643;SDS011;7921;43.586;1.408;2023-11-19T12:45:13;2.67;;;2.47;;
15643;SDS011;7921;43.586;1.408;2023-11-19T12:47:45;3.27;;;2.47;;
15643;SDS011;7921;43.586;1.408;2023-11-19T12:50:14;3.23;;;2.60;;
15643;SDS011;7921;43.586;1.408;2023-11-19T12:52:42;3.13;;;2.50;;
15643;SDS011;7921;43.586;1.408;2023-11-19T12:55:26;3.47;;;2.87;;
15643;SDS011;7921;43.586;1.408;2023-11-19T12:57:53;3.07;;;2.77;;
15643;SDS011;7921;43.586;1.408;2023-11-19T13:00:24;3.63;;;2.73;;
15643;SDS011;7921;43.586;1.408;2023-11-19T13:02:51;3.87;;;2.73;;
15643;SDS011;7921;43.586;1.408;2023-11-19T13:08:04;2.43;;;2.23;;
15643;SDS011;7921;43.586;1.408;2023-11-19T13:10:33;2.83;;;2.53;;
15643;SDS011;7921;43.586;1.408;2023-11-19T13:13:09;3.03;;;2.73;;
15643;SDS011;7921;43.586;1.408;2023-11-19T13:15:34;3.33;;;2.60;;
15643;SDS011;7921;43.586;1.408;2023-11-19T13:18:00;2.97;;;2.53;;
15643;SDS011;7921;43.586;1.408;2023-11-19T13:20:27;3.97;;;2.67;;
15643;SDS011;7921;43.586;1.408;2023-11-19T13:23:02;4.17;;;2.30;;
15643;SDS011;7921;43.586;1.408;2023-11-19T13:25:29;3.20;;;2.47;;
15643;SDS011;7921;43.586;1.408;2023-11-19T13:27:56;3.13;;;2.00;;
15643;SDS011;7921;43.586;1.408;2023-11-19T13:30:22;2.67;;;2.37;;
15643;SDS011;7921;43.586;1.408;2023-11-19T13:32:48;4.33;;;2.47;;
15643;SDS011;7921;43.586;1.408;2023-11-19T13:35:13;2.57;;;2.37;;
15643;SDS011;7921;43.586;1.408;2023-11-19T13:37:39;3.10;;;2.80;;
15643;SDS011;7921;43.586;1.408;2023-11-19T13:40:06;3.20;;;2.30;;
15643;SDS011;7921;43.586;1.408;2023-11-19T13:42:32;3.70;;;2.60;;
15643;SDS011;7921;43.586;1.408;2023-11-19T13:44:57;2.60;;;2.40;;
15643;SDS011;7921;43.586;1.408;2023-11-19T13:47:22;2.77;;;2.47;;
15643;SDS011;7921;43.586;1.408;2023-11-19T13:49:48;2.57;;;2.37;;
15643;SDS011;7921;43.586;1.408;2023-11-19T13:52:14;2.87;;;2.20;;
15643;SDS011;7921;43.586;1.408;2023-11-19T13:54:39;2.30;;;2.10;;
15643;SDS011;7921;43.586;1.408;2023-11-19T13:57:05;3.70;;;2.93;;
15643;SDS011;7921;43.586;1.408;2023-11-19T13:59:30;3.20;;;2.63;;
15643;SDS011;7921;43.586;1.408;2023-11-19T14:01:59;3.13;;;2.20;;
15643;SDS011;7921;43.586;1.408;2023-11-19T14:04:24;4.30;;;2.97;;
15643;SDS011;7921;43.586;1.408;2023-11-19T14:06:50;3.00;;;2.53;;
15643;SDS011;7921;43.586;1.408;2023-11-19T14:09:16;3.00;;;2.60;;
15643;SDS011;7921;43.586;1.408;2023-11-19T14:11:41;2.53;;;2.33;;
15643;SDS011;7921;43.586;1.408;2023-11-19T14:14:07;4.40;;;2.37;;
15643;SDS011;7921;43.586;1.408;2023-11-19T14:16:33;3.50;;;2.70;;
15643;SDS011;7921;43.586;1.408;2023-11-19T14:18:59;2.30;;;2.10;;
15643;SDS011;7921;43.586;1.408;2023-11-19T14:21:24;2.50;;;2.03;;
15643;SDS011;7921;43.586;1.408;2023-11-19T14:23:51;2.80;;;2.60;;
15643;SDS011;7921;43.586;1.408;2023-11-19T14:26:17;3.10;;;2.70;;
15643;SDS011;7921;43.586;1.408;2023-11-19T14:28:42;3.00;;;2.67;;
15643;SDS011;7921;43.586;1.408;2023-11-19T14:31:08;2.70;;;2.50;;
15643;SDS011;7921;43.586;1.408;2023-11-19T14:33:33;2.93;;;2.53;;
15643;SDS011;7921;43.586;1.408;2023-11-19T14:36:00;3.10;;;2.80;;
15643;SDS011;7921;43.586;1.408;2023-11-19T14:38:26;2.70;;;2.07;;
15643;SDS011;7921;43.586;1.408;2023-11-19T14:40:51;3.73;;;2.50;;
15643;SDS011;7921;43.586;1.408;2023-11-19T14:43:17;2.77;;;2.30;;
15643;SDS011;7921;43.586;1.408;2023-11-19T14:45:42;3.30;;;2.30;;
15643;SDS011;7921;43.586;1.408;2023-11-19T14:48:08;4.37;;;3.00;;
15643;SDS011;7921;43.586;1.408;2023-11-19T14:50:35;3.20;;;2.70;;
15643;SDS011;7921;43.586;1.408;2023-11-19T14:53:00;3.20;;;2.77;;
15643;SDS011;7921;43.586;1.408;2023-11-19T14:55:26;2.90;;;2.60;;
15643;SDS011;7921;43.586;1.408;2023-11-19T14:57:51;2.57;;;2.37;;
15643;SDS011;7921;43.586;1.408;2023-11-19T15:00:16;2.60;;;2.37;;
15643;SDS011;7921;43.586;1.408;2023-11-19T15:02:42;3.00;;;2.67;;
15643;SDS011;7921;43.586;1.408;2023-11-19T15:05:08;5.23;;;2.80;;
15643;SDS011;7921;43.586;1.408;2023-11-19T15:07:37;3.60;;;2.33;;
15643;SDS011;7921;43.586;1.408;2023-11-19T15:10:02;2.53;;;2.33;;
15643;SDS011;7921;43.586;1.408;2023-11-19T15:12:28;3.00;;;2.40;;
15643;SDS011;7921;43.586;1.408;2023-11-19T15:14:54;2.90;;;2.30;;
15643;SDS011;7921;43.586;1.408;2023-11-19T15:17:20;2.57;;;2.37;;
15643;SDS011;7921;43.586;1.408;2023-11-19T15:19:46;2.60;;;2.30;;